Startpagina
METAR-TAF:

METAR-TAF

Vliegvelden :

Ndjamena, Tsjaad

breedte: 12-08N, lengte: 015-02E, hoogte: 295 m

Actueel weer

Dit bericht is 53 minuten geleden gemaakt, om 10:00 UTC
Wind 7 kt uit het zuiden
Temperatuur 32°C
Vochtigheid 56%
Druk 1012 hPa
Zicht 10 km of meer
geen wolken onder 1500 m en geen cumulonimbus

METAR: FTTJ 191000Z 19007KT CAVOK 32/22 Q1012 NOSIG

Tijdstip: 11:53 (10:53 UTC)

Verwachting

Dit bericht is 5 uur en het 53 minuten geleden gemaakt, om 05:00 UTC
Verwachting geldig van 19 om 06 UTC tot 20 om 12 UTC
Wind 5 kt uit het zuidwesten
Zicht 10 km of meer
geen wolken onder 1500 m en geen cumulonimbus
Kans 30% :
Tijdelijke
van 19 om 14 UTC tot 19 om 20 UTC
onweer

TAF: FTTJ 190500Z 1906/2012 22005KT CAVOK PROB30 TEMPO 1914/1920 TS

Waarnemingen en weersverwachtingen van meer dan 4000 vliegvelden (METAR en TAF).

De beschikbare stations zijn de gele en rode punten op de kaart.

Ga met uw muis naar het station om de naam te zien.

Klik dan om waarnemingen en weersverwachtingen te zien.

kaart wijzigen: klik op de groene knoppen met een zwart kruis om in te zoomen, op de groene knop met een streepje om uit te zoomen of op de groene pijlen voor aangrenzende kaarten.


METAR-TAF: